Severn, Maryland
Current Conditions -  °F | °C
As of 4:54 AM on Sunday 21 Dec 2014 (Local Time) from KBWI Reporting Station
Overcast Overcast  
Wind Chill: 32°   Ceiling: 7000
Heat Index: 32°   Visibility: 8mi
Dew Point: 24°   Wind: 3mph
Humidity: 73%   Direction: 320°NW
Pressure: 30.3"   Gusts: NA
Location:  39.14°N, 76.69°W
Report Text: KBWI 210954Z 32003KT 8SM OVC070 00/M04 A3030 RMK AO2 SLP263 T00001044
Loading
Personal Weather Stations






























Interactive Weather Map New forecast layout! Learn more

10-Day Weather Forecast

Advertisements
Track Severe Weather on mobile